sensor_id;sensor_type;location;lat;lon;timestamp;temperature;humidity
65472;DHT22;52068;50.710;14.492;2023-12-22T00:01:21;32.28;24.71
65472;DHT22;52068;50.710;14.492;2023-12-22T00:03:47;31.77;24.90
65472;DHT22;52068;50.710;14.492;2023-12-22T00:06:12;31.39;25.41
65472;DHT22;52068;50.710;14.492;2023-12-22T00:08:38;30.92;25.88
65472;DHT22;52068;50.710;14.492;2023-12-22T00:11:04;30.50;26.43
65472;DHT22;52068;50.710;14.492;2023-12-22T00:13:29;30.04;27.06
65472;DHT22;52068;50.710;14.492;2023-12-22T00:15:55;29.65;27.56
65472;DHT22;52068;50.710;14.492;2023-12-22T00:18:20;29.24;28.22
65472;DHT22;52068;50.710;14.492;2023-12-22T00:20:46;28.90;28.56
65472;DHT22;52068;50.710;14.492;2023-12-22T00:23:11;28.53;28.87
65472;DHT22;52068;50.710;14.492;2023-12-22T00:25:36;28.15;29.70
65472;DHT22;52068;50.710;14.492;2023-12-22T00:28:02;27.85;30.11
65472;DHT22;52068;50.710;14.492;2023-12-22T00:30:27;27.85;30.40
65472;DHT22;52068;50.710;14.492;2023-12-22T00:32:53;28.09;30.02
65472;DHT22;52068;50.710;14.492;2023-12-22T00:35:18;28.62;29.58
65472;DHT22;52068;50.710;14.492;2023-12-22T00:37:43;29.39;28.52
65472;DHT22;52068;50.710;14.492;2023-12-22T00:40:09;30.25;27.37
65472;DHT22;52068;50.710;14.492;2023-12-22T00:42:35;30.98;26.45
65472;DHT22;52068;50.710;14.492;2023-12-22T00:45:00;31.56;25.72
65472;DHT22;52068;50.710;14.492;2023-12-22T00:47:26;32.02;25.18
65472;DHT22;52068;50.710;14.492;2023-12-22T00:49:52;32.23;24.88
65472;DHT22;52068;50.710;14.492;2023-12-22T00:52:17;32.27;24.92
65472;DHT22;52068;50.710;14.492;2023-12-22T00:54:43;32.12;25.01
65472;DHT22;52068;50.710;14.492;2023-12-22T00:57:08;31.86;25.38
65472;DHT22;52068;50.710;14.492;2023-12-22T00:59:33;31.39;25.88
65472;DHT22;52068;50.710;14.492;2023-12-22T01:01:59;30.98;26.10
65472;DHT22;52068;50.710;14.492;2023-12-22T01:04:24;30.46;26.88
65472;DHT22;52068;50.710;14.492;2023-12-22T01:06:49;30.08;27.06
65472;DHT22;52068;50.710;14.492;2023-12-22T01:09:15;29.68;27.44
65472;DHT22;52068;50.710;14.492;2023-12-22T01:11:41;29.23;28.40
65472;DHT22;52068;50.710;14.492;2023-12-22T01:14:06;28.73;28.89
65472;DHT22;52068;50.710;14.492;2023-12-22T01:16:33;28.28;29.51
65472;DHT22;52068;50.710;14.492;2023-12-22T01:18:58;27.93;29.84
65472;DHT22;52068;50.710;14.492;2023-12-22T01:21:23;27.60;30.10
65472;DHT22;52068;50.710;14.492;2023-12-22T01:23:49;27.32;30.98
65472;DHT22;52068;50.710;14.492;2023-12-22T01:26:14;27.33;31.00
65472;DHT22;52068;50.710;14.492;2023-12-22T01:28:40;27.58;30.94
65472;DHT22;52068;50.710;14.492;2023-12-22T01:31:05;28.09;30.08
65472;DHT22;52068;50.710;14.492;2023-12-22T01:33:30;28.87;29.13
65472;DHT22;52068;50.710;14.492;2023-12-22T01:35:56;29.72;27.95
65472;DHT22;52068;50.710;14.492;2023-12-22T01:38:21;30.47;26.99
65472;DHT22;52068;50.710;14.492;2023-12-22T01:40:47;31.17;26.18
65472;DHT22;52068;50.710;14.492;2023-12-22T01:43:12;31.69;25.52
65472;DHT22;52068;50.710;14.492;2023-12-22T01:45:54;32.02;24.92
65472;DHT22;52068;50.710;14.492;2023-12-22T01:48:21;32.12;24.80
65472;DHT22;52068;50.710;14.492;2023-12-22T01:50:49;32.06;24.93
65472;DHT22;52068;50.710;14.492;2023-12-22T01:53:16;31.80;25.16
65472;DHT22;52068;50.710;14.492;2023-12-22T01:55:41;31.43;25.49
65472;DHT22;52068;50.710;14.492;2023-12-22T01:58:07;31.01;25.88
65472;DHT22;52068;50.710;14.492;2023-12-22T02:00:34;30.53;26.71
65472;DHT22;52068;50.710;14.492;2023-12-22T02:02:59;30.09;27.08
65472;DHT22;52068;50.710;14.492;2023-12-22T02:05:25;29.61;27.69
65472;DHT22;52068;50.710;14.492;2023-12-22T02:07:51;29.17;28.03
65472;DHT22;52068;50.710;14.492;2023-12-22T02:10:16;28.79;28.84
65472;DHT22;52068;50.710;14.492;2023-12-22T02:12:42;28.36;28.86
65472;DHT22;52068;50.710;14.492;2023-12-22T02:15:08;28.00;29.32
65472;DHT22;52068;50.710;14.492;2023-12-22T02:17:54;27.63;30.17
65472;DHT22;52068;50.710;14.492;2023-12-22T02:20:21;27.29;30.69
65472;DHT22;52068;50.710;14.492;2023-12-22T02:22:51;27.20;30.47
65472;DHT22;52068;50.710;14.492;2023-12-22T02:25:17;27.37;30.44
65472;DHT22;52068;50.710;14.492;2023-12-22T02:27:52;27.85;30.04
65472;DHT22;52068;50.710;14.492;2023-12-22T02:33:10;29.41;28.08
65472;DHT22;52068;50.710;14.492;2023-12-22T02:35:37;30.19;27.18
65472;DHT22;52068;50.710;14.492;2023-12-22T02:38:04;30.78;26.19
65472;DHT22;52068;50.710;14.492;2023-12-22T02:40:31;31.34;25.53
65472;DHT22;52068;50.710;14.492;2023-12-22T02:42:57;31.69;25.22
65472;DHT22;52068;50.710;14.492;2023-12-22T02:45:23;31.85;25.06
65472;DHT22;52068;50.710;14.492;2023-12-22T02:47:48;31.77;25.13
65472;DHT22;52068;50.710;14.492;2023-12-22T02:50:15;31.59;25.18
65472;DHT22;52068;50.710;14.492;2023-12-22T02:52:41;31.25;25.65
65472;DHT22;52068;50.710;14.492;2023-12-22T02:55:07;30.83;26.11
65472;DHT22;52068;50.710;14.492;2023-12-22T02:57:32;30.33;26.71
65472;DHT22;52068;50.710;14.492;2023-12-22T02:59:58;29.75;27.57
65472;DHT22;52068;50.710;14.492;2023-12-22T03:02:23;29.34;27.88
65472;DHT22;52068;50.710;14.492;2023-12-22T03:04:49;28.93;28.58
65472;DHT22;52068;50.710;14.492;2023-12-22T03:07:15;28.56;28.84
65472;DHT22;52068;50.710;14.492;2023-12-22T03:09:44;28.12;29.59
65472;DHT22;52068;50.710;14.492;2023-12-22T03:12:10;27.71;30.32
65472;DHT22;52068;50.710;14.492;2023-12-22T03:14:36;27.37;30.60
65472;DHT22;52068;50.710;14.492;2023-12-22T03:17:05;27.02;31.31
65472;DHT22;52068;50.710;14.492;2023-12-22T03:19:32;26.85;31.71
65472;DHT22;52068;50.710;14.492;2023-12-22T03:21:58;26.91;31.62
65472;DHT22;52068;50.710;14.492;2023-12-22T03:24:24;27.19;31.32
65472;DHT22;52068;50.710;14.492;2023-12-22T03:26:50;27.73;30.14
65472;DHT22;52068;50.710;14.492;2023-12-22T03:29:16;28.28;29.91
65472;DHT22;52068;50.710;14.492;2023-12-22T03:31:41;29.06;28.94
65472;DHT22;52068;50.710;14.492;2023-12-22T03:34:07;29.72;27.99
65472;DHT22;52068;50.710;14.492;2023-12-22T03:36:32;30.26;27.17
65472;DHT22;52068;50.710;14.492;2023-12-22T03:38:58;30.70;26.63
65472;DHT22;52068;50.710;14.492;2023-12-22T03:41:23;30.92;26.28
65472;DHT22;52068;50.710;14.492;2023-12-22T03:43:49;30.95;26.28
65472;DHT22;52068;50.710;14.492;2023-12-22T03:46:14;30.83;26.52
65472;DHT22;52068;50.710;14.492;2023-12-22T03:48:40;30.59;26.64
65472;DHT22;52068;50.710;14.492;2023-12-22T03:51:05;30.20;27.27
65472;DHT22;52068;50.710;14.492;2023-12-22T03:53:31;29.82;27.52
65472;DHT22;52068;50.710;14.492;2023-12-22T03:55:56;29.51;27.81
65472;DHT22;52068;50.710;14.492;2023-12-22T03:58:22;29.10;28.45
65472;DHT22;52068;50.710;14.492;2023-12-22T04:00:47;28.73;28.66
65472;DHT22;52068;50.710;14.492;2023-12-22T04:03:13;28.45;28.70
65472;DHT22;52068;50.710;14.492;2023-12-22T04:05:39;28.05;29.68
65472;DHT22;52068;50.710;14.492;2023-12-22T04:08:05;27.66;30.26
65472;DHT22;52068;50.710;14.492;2023-12-22T04:10:30;27.27;30.70
65472;DHT22;52068;50.710;14.492;2023-12-22T04:12:56;26.96;30.97
65472;DHT22;52068;50.710;14.492;2023-12-22T04:15:21;26.71;31.71
65472;DHT22;52068;50.710;14.492;2023-12-22T04:17:46;26.54;32.18
65472;DHT22;52068;50.710;14.492;2023-12-22T04:20:12;26.71;31.71
65472;DHT22;52068;50.710;14.492;2023-12-22T04:22:38;26.92;31.59
65472;DHT22;52068;50.710;14.492;2023-12-22T04:25:04;27.25;30.92
65472;DHT22;52068;50.710;14.492;2023-12-22T04:27:31;27.64;30.64
65472;DHT22;52068;50.710;14.492;2023-12-22T04:29:56;28.04;30.23
65472;DHT22;52068;50.710;14.492;2023-12-22T04:32:21;28.39;29.54
65472;DHT22;52068;50.710;14.492;2023-12-22T04:34:47;28.77;29.23
65472;DHT22;52068;50.710;14.492;2023-12-22T04:37:12;29.11;28.79
65472;DHT22;52068;50.710;14.492;2023-12-22T04:39:37;29.41;28.40
65472;DHT22;52068;50.710;14.492;2023-12-22T04:42:03;29.74;27.92
65472;DHT22;52068;50.710;14.492;2023-12-22T04:44:28;29.93;27.76
65472;DHT22;52068;50.710;14.492;2023-12-22T04:46:54;30.06;27.30
65472;DHT22;52068;50.710;14.492;2023-12-22T04:49:19;30.26;26.91
65472;DHT22;52068;50.710;14.492;2023-12-22T04:51:45;30.44;26.65
65472;DHT22;52068;50.710;14.492;2023-12-22T04:54:10;30.60;26.19
65472;DHT22;52068;50.710;14.492;2023-12-22T04:56:35;30.66;26.34
65472;DHT22;52068;50.710;14.492;2023-12-22T04:59:01;30.67;26.40
65472;DHT22;52068;50.710;14.492;2023-12-22T05:01:26;30.57;26.53
65472;DHT22;52068;50.710;14.492;2023-12-22T05:03:52;30.30;27.00
65472;DHT22;52068;50.710;14.492;2023-12-22T05:06:19;30.08;26.94
65472;DHT22;52068;50.710;14.492;2023-12-22T05:08:44;29.76;27.63
65472;DHT22;52068;50.710;14.492;2023-12-22T05:11:10;29.47;27.41
65472;DHT22;52068;50.710;14.492;2023-12-22T05:13:35;29.08;28.27
65472;DHT22;52068;50.710;14.492;2023-12-22T05:16:01;28.80;28.42
65472;DHT22;52068;50.710;14.492;2023-12-22T05:18:27;28.42;29.18
65472;DHT22;52068;50.710;14.492;2023-12-22T05:20:52;28.04;29.57
65472;DHT22;52068;50.710;14.492;2023-12-22T05:23:19;27.73;30.13
65472;DHT22;52068;50.710;14.492;2023-12-22T05:25:44;27.39;30.99
65472;DHT22;52068;50.710;14.492;2023-12-22T05:28:09;27.02;31.44
65472;DHT22;52068;50.710;14.492;2023-12-22T05:30:35;26.76;31.47
65472;DHT22;52068;50.710;14.492;2023-12-22T05:33:01;26.49;31.92
65472;DHT22;52068;50.710;14.492;2023-12-22T05:35:26;26.31;32.42
65472;DHT22;52068;50.710;14.492;2023-12-22T05:37:51;26.13;32.70
65472;DHT22;52068;50.710;14.492;2023-12-22T05:40:17;26.14;32.80
65472;DHT22;52068;50.710;14.492;2023-12-22T05:42:42;26.28;32.43
65472;DHT22;52068;50.710;14.492;2023-12-22T05:45:08;26.54;32.24
65472;DHT22;52068;50.710;14.492;2023-12-22T05:47:36;26.79;31.24
65472;DHT22;52068;50.710;14.492;2023-12-22T05:50:01;27.12;31.27
65472;DHT22;52068;50.710;14.492;2023-12-22T05:52:27;27.43;29.86
65472;DHT22;52068;50.710;14.492;2023-12-22T05:54:52;27.76;29.94
65472;DHT22;52068;50.710;14.492;2023-12-22T05:57:19;28.02;29.62
65472;DHT22;52068;50.710;14.492;2023-12-22T05:59:44;28.26;28.94
65472;DHT22;52068;50.710;14.492;2023-12-22T06:02:10;28.41;29.18
65472;DHT22;52068;50.710;14.492;2023-12-22T06:04:35;28.57;28.69
65472;DHT22;52068;50.710;14.492;2023-12-22T06:07:01;28.70;28.61
65472;DHT22;52068;50.710;14.492;2023-12-22T06:09:26;28.70;28.43
65472;DHT22;52068;50.710;14.492;2023-12-22T06:11:52;28.65;28.99
65472;DHT22;52068;50.710;14.492;2023-12-22T06:14:17;28.65;27.99
65472;DHT22;52068;50.710;14.492;2023-12-22T06:16:43;28.48;28.35
65472;DHT22;52068;50.710;14.492;2023-12-22T06:19:08;28.34;28.64
65472;DHT22;52068;50.710;14.492;2023-12-22T06:21:37;28.11;29.37
65472;DHT22;52068;50.710;14.492;2023-12-22T06:24:03;27.81;29.40
65472;DHT22;52068;50.710;14.492;2023-12-22T06:26:28;27.61;30.15
65472;DHT22;52068;50.710;14.492;2023-12-22T06:28:54;27.36;30.59
65472;DHT22;52068;50.710;14.492;2023-12-22T06:31:20;27.03;31.26
65472;DHT22;52068;50.710;14.492;2023-12-22T06:33:47;26.82;31.34
65472;DHT22;52068;50.710;14.492;2023-12-22T06:36:24;26.56;31.80
65472;DHT22;52068;50.710;14.492;2023-12-22T06:38:53;26.38;31.82
65472;DHT22;52068;50.710;14.492;2023-12-22T06:41:29;26.23;32.26
65472;DHT22;52068;50.710;14.492;2023-12-22T06:43:55;26.07;32.04
65472;DHT22;52068;50.710;14.492;2023-12-22T06:46:23;25.94;32.27
65472;DHT22;52068;50.710;14.492;2023-12-22T06:48:51;25.90;32.84
65472;DHT22;52068;50.710;14.492;2023-12-22T06:51:18;25.92;31.92
65472;DHT22;52068;50.710;14.492;2023-12-22T06:53:44;26.03;32.22
65472;DHT22;52068;50.710;14.492;2023-12-22T06:56:24;26.30;32.21
65472;DHT22;52068;50.710;14.492;2023-12-22T06:58:51;26.41;31.96
65472;DHT22;52068;50.710;14.492;2023-12-22T07:03:51;26.94;31.13
65472;DHT22;52068;50.710;14.492;2023-12-22T07:06:20;27.15;30.19
65472;DHT22;52068;50.710;14.492;2023-12-22T07:08:46;27.32;30.12
65472;DHT22;52068;50.710;14.492;2023-12-22T07:11:20;27.54;30.08
65472;DHT22;52068;50.710;14.492;2023-12-22T07:13:45;27.67;29.79
65472;DHT22;52068;50.710;14.492;2023-12-22T07:16:11;27.84;29.72
65472;DHT22;52068;50.710;14.492;2023-12-22T07:18:37;27.90;29.42
65472;DHT22;52068;50.710;14.492;2023-12-22T07:21:03;27.95;29.07
65472;DHT22;52068;50.710;14.492;2023-12-22T07:23:28;27.97;29.09
65472;DHT22;52068;50.710;14.492;2023-12-22T07:25:54;28.00;28.50
65472;DHT22;52068;50.710;14.492;2023-12-22T07:28:19;27.94;29.09
65472;DHT22;52068;50.710;14.492;2023-12-22T07:30:44;27.83;29.25
65472;DHT22;52068;50.710;14.492;2023-12-22T07:33:10;27.68;29.54
65472;DHT22;52068;50.710;14.492;2023-12-22T07:35:35;27.47;29.82
65472;DHT22;52068;50.710;14.492;2023-12-22T07:38:01;27.23;29.91
65472;DHT22;52068;50.710;14.492;2023-12-22T07:40:28;27.02;30.03
65472;DHT22;52068;50.710;14.492;2023-12-22T07:42:56;26.82;30.15
65472;DHT22;52068;50.710;14.492;2023-12-22T07:45:21;26.59;31.43
65472;DHT22;52068;50.710;14.492;2023-12-22T07:47:46;26.37;31.92
65472;DHT22;52068;50.710;14.492;2023-12-22T07:50:12;26.14;31.42
65472;DHT22;52068;50.710;14.492;2023-12-22T07:52:37;26.06;31.61
65472;DHT22;52068;50.710;14.492;2023-12-22T07:55:07;25.90;31.70
65472;DHT22;52068;50.710;14.492;2023-12-22T07:57:36;25.84;31.40
65472;DHT22;52068;50.710;14.492;2023-12-22T08:00:01;25.87;30.91
65472;DHT22;52068;50.710;14.492;2023-12-22T08:02:26;25.98;30.90
65472;DHT22;52068;50.710;14.492;2023-12-22T08:04:52;26.18;31.32
65472;DHT22;52068;50.710;14.492;2023-12-22T08:07:17;26.40;31.11
65472;DHT22;52068;50.710;14.492;2023-12-22T08:09:43;26.69;30.03
65472;DHT22;52068;50.710;14.492;2023-12-22T08:12:08;27.00;29.81
65472;DHT22;52068;50.710;14.492;2023-12-22T08:14:34;27.35;29.74
65472;DHT22;52068;50.710;14.492;2023-12-22T08:16:59;27.54;28.96
65472;DHT22;52068;50.710;14.492;2023-12-22T08:19:24;27.83;28.35
65472;DHT22;52068;50.710;14.492;2023-12-22T08:21:52;28.16;27.91
65472;DHT22;52068;50.710;14.492;2023-12-22T08:24:18;28.32;27.63
65472;DHT22;52068;50.710;14.492;2023-12-22T08:26:43;28.48;27.60
65472;DHT22;52068;50.710;14.492;2023-12-22T08:29:09;28.57;27.50
65472;DHT22;52068;50.710;14.492;2023-12-22T08:31:34;28.65;27.76
65472;DHT22;52068;50.710;14.492;2023-12-22T08:34:00;28.46;27.92
65472;DHT22;52068;50.710;14.492;2023-12-22T08:36:25;28.29;28.52
65472;DHT22;52068;50.710;14.492;2023-12-22T08:38:51;28.09;28.35
65472;DHT22;52068;50.710;14.492;2023-12-22T08:41:16;27.93;28.46
65472;DHT22;52068;50.710;14.492;2023-12-22T08:43:42;27.71;28.70
65472;DHT22;52068;50.710;14.492;2023-12-22T08:46:07;27.49;29.08
65472;DHT22;52068;50.710;14.492;2023-12-22T08:48:35;27.23;29.84
65472;DHT22;52068;50.710;14.492;2023-12-22T08:51:00;27.05;29.74
65472;DHT22;52068;50.710;14.492;2023-12-22T08:53:25;26.79;30.08
65472;DHT22;52068;50.710;14.492;2023-12-22T08:55:51;26.58;30.76
65472;DHT22;52068;50.710;14.492;2023-12-22T08:58:17;26.38;31.35
65472;DHT22;52068;50.710;14.492;2023-12-22T09:00:43;26.18;31.33
65472;DHT22;52068;50.710;14.492;2023-12-22T09:03:09;26.07;31.49
65472;DHT22;52068;50.710;14.492;2023-12-22T09:05:35;25.94;31.95
65472;DHT22;52068;50.710;14.492;2023-12-22T09:08:00;25.93;32.19
65472;DHT22;52068;50.710;14.492;2023-12-22T09:10:26;26.07;32.08
65472;DHT22;52068;50.710;14.492;2023-12-22T09:12:51;26.20;32.02
65472;DHT22;52068;50.710;14.492;2023-12-22T09:15:16;26.38;31.35
65472;DHT22;52068;50.710;14.492;2023-12-22T09:17:42;26.62;31.17
65472;DHT22;52068;50.710;14.492;2023-12-22T09:20:07;26.84;30.87
65472;DHT22;52068;50.710;14.492;2023-12-22T09:22:33;27.10;30.54
65472;DHT22;52068;50.710;14.492;2023-12-22T09:24:58;27.47;30.46
65472;DHT22;52068;50.710;14.492;2023-12-22T09:27:24;27.98;29.63
65472;DHT22;52068;50.710;14.492;2023-12-22T09:29:54;28.49;28.82
65472;DHT22;52068;50.710;14.492;2023-12-22T09:32:19;29.14;28.04
65472;DHT22;52068;50.710;14.492;2023-12-22T09:34:44;29.59;27.19
65472;DHT22;52068;50.710;14.492;2023-12-22T09:37:10;30.35;26.62
65472;DHT22;52068;50.710;14.492;2023-12-22T09:39:35;30.83;26.12
65472;DHT22;52068;50.710;14.492;2023-12-22T09:42:00;31.14;25.80
65472;DHT22;52068;50.710;14.492;2023-12-22T09:44:29;31.26;25.56
65472;DHT22;52068;50.710;14.492;2023-12-22T09:46:57;31.26;25.67
65472;DHT22;52068;50.710;14.492;2023-12-22T09:49:23;31.05;26.04
65472;DHT22;52068;50.710;14.492;2023-12-22T09:51:50;30.68;26.54
65472;DHT22;52068;50.710;14.492;2023-12-22T09:54:16;30.16;26.81
65472;DHT22;52068;50.710;14.492;2023-12-22T09:56:42;29.69;27.29
65472;DHT22;52068;50.710;14.492;2023-12-22T09:59:12;29.23;27.96
65472;DHT22;52068;50.710;14.492;2023-12-22T10:01:43;28.79;29.40
65472;DHT22;52068;50.710;14.492;2023-12-22T10:04:11;28.34;30.27
65472;DHT22;52068;50.710;14.492;2023-12-22T10:06:37;27.88;30.58
65472;DHT22;52068;50.710;14.492;2023-12-22T10:09:03;27.47;31.38
65472;DHT22;52068;50.710;14.492;2023-12-22T10:11:31;27.10;31.82
65472;DHT22;52068;50.710;14.492;2023-12-22T10:13:59;26.76;33.10
65472;DHT22;52068;50.710;14.492;2023-12-22T10:16:24;26.45;33.52
65472;DHT22;52068;50.710;14.492;2023-12-22T10:18:50;26.27;33.97
65472;DHT22;52068;50.710;14.492;2023-12-22T10:21:16;26.23;33.97
65472;DHT22;52068;50.710;14.492;2023-12-22T10:23:41;26.59;33.57
65472;DHT22;52068;50.710;14.492;2023-12-22T10:26:07;27.22;32.18
65472;DHT22;52068;50.710;14.492;2023-12-22T10:28:33;27.88;31.26
65472;DHT22;52068;50.710;14.492;2023-12-22T10:30:58;28.52;30.28
65472;DHT22;52068;50.710;14.492;2023-12-22T10:33:31;29.28;29.14
65472;DHT22;52068;50.710;14.492;2023-12-22T10:35:58;29.98;28.32
65472;DHT22;52068;50.710;14.492;2023-12-22T10:38:24;30.40;27.43
65472;DHT22;52068;50.710;14.492;2023-12-22T10:40:50;30.73;27.13
65472;DHT22;52068;50.710;14.492;2023-12-22T10:43:15;30.83;26.96
65472;DHT22;52068;50.710;14.492;2023-12-22T10:45:41;30.57;27.39
65472;DHT22;52068;50.710;14.492;2023-12-22T10:48:07;30.17;27.75
65472;DHT22;52068;50.710;14.492;2023-12-22T10:50:32;29.85;28.16
65472;DHT22;52068;50.710;14.492;2023-12-22T10:52:58;29.53;28.44
65472;DHT22;52068;50.710;14.492;2023-12-22T10:55:23;29.13;28.63
65472;DHT22;52068;50.710;14.492;2023-12-22T10:57:49;28.69;29.42
65472;DHT22;52068;50.710;14.492;2023-12-22T11:00:16;28.31;30.02
65472;DHT22;52068;50.710;14.492;2023-12-22T11:02:47;27.91;30.75
65472;DHT22;52068;50.710;14.492;2023-12-22T11:05:18;27.50;30.89
65472;DHT22;52068;50.710;14.492;2023-12-22T11:07:48;27.16;31.76
65472;DHT22;52068;50.710;14.492;2023-12-22T11:10:20;26.89;32.30
65472;DHT22;52068;50.710;14.492;2023-12-22T11:12:46;26.59;33.11
65472;DHT22;52068;50.710;14.492;2023-12-22T11:15:13;26.37;33.66
65472;DHT22;52068;50.710;14.492;2023-12-22T11:17:42;26.41;33.25
65472;DHT22;52068;50.710;14.492;2023-12-22T11:20:12;26.68;32.59
65472;DHT22;52068;50.710;14.492;2023-12-22T11:22:38;27.02;32.24
65472;DHT22;52068;50.710;14.492;2023-12-22T11:25:05;27.49;31.56
65472;DHT22;52068;50.710;14.492;2023-12-22T11:27:37;27.97;30.56
65472;DHT22;52068;50.710;14.492;2023-12-22T11:30:04;28.38;30.12
65472;DHT22;52068;50.710;14.492;2023-12-22T11:32:34;28.53;29.81
65472;DHT22;52068;50.710;14.492;2023-12-22T11:34:59;28.51;29.80
65472;DHT22;52068;50.710;14.492;2023-12-22T11:37:25;28.39;29.98
65472;DHT22;52068;50.710;14.492;2023-12-22T11:39:51;28.16;30.07
65472;DHT22;52068;50.710;14.492;2023-12-22T11:42:42;27.93;30.16
65472;DHT22;52068;50.710;14.492;2023-12-22T11:45:11;27.58;30.82
65472;DHT22;52068;50.710;14.492;2023-12-22T11:47:37;27.30;31.89
65472;DHT22;52068;50.710;14.492;2023-12-22T11:50:04;27.00;32.13
65472;DHT22;52068;50.710;14.492;2023-12-22T11:52:33;26.68;32.48
65472;DHT22;52068;50.710;14.492;2023-12-22T11:54:59;26.40;33.11
65472;DHT22;52068;50.710;14.492;2023-12-22T12:02:42;25.73;34.41
65472;DHT22;52068;50.710;14.492;2023-12-22T12:05:09;25.61;34.69
65472;DHT22;52068;50.710;14.492;2023-12-22T12:07:47;25.82;34.72
65472;DHT22;52068;50.710;14.492;2023-12-22T12:13:05;26.69;33.19
65472;DHT22;52068;50.710;14.492;2023-12-22T12:15:33;27.20;32.39
65472;DHT22;52068;50.710;14.492;2023-12-22T12:17:59;27.68;31.42
65472;DHT22;52068;50.710;14.492;2023-12-22T12:20:24;27.97;31.13
65472;DHT22;52068;50.710;14.492;2023-12-22T12:22:50;28.28;30.82
65472;DHT22;52068;50.710;14.492;2023-12-22T12:25:16;28.41;30.55
65472;DHT22;52068;50.710;14.492;2023-12-22T12:27:42;28.39;30.42
65472;DHT22;52068;50.710;14.492;2023-12-22T14:14:01;26.64;31.55
65472;DHT22;52068;50.710;14.492;2023-12-22T14:16:27;26.88;30.52
65472;DHT22;52068;50.710;14.492;2023-12-22T14:18:52;27.27;30.03
65472;DHT22;52068;50.710;14.492;2023-12-22T14:21:17;28.00;28.88
65472;DHT22;52068;50.710;14.492;2023-12-22T14:23:43;28.82;27.68
65472;DHT22;52068;50.710;14.492;2023-12-22T14:26:08;29.62;26.39
65472;DHT22;52068;50.710;14.492;2023-12-22T14:28:34;30.37;25.31
65472;DHT22;52068;50.710;14.492;2023-12-22T14:31:00;30.98;24.34
65472;DHT22;52068;50.710;14.492;2023-12-22T14:33:26;31.49;23.74
65472;DHT22;52068;50.710;14.492;2023-12-22T14:35:51;31.80;23.66
65472;DHT22;52068;50.710;14.492;2023-12-22T14:38:17;32.00;23.41
65472;DHT22;52068;50.710;14.492;2023-12-22T14:40:42;32.05;23.19
65472;DHT22;52068;50.710;14.492;2023-12-22T14:43:08;31.90;23.12
65472;DHT22;52068;50.710;14.492;2023-12-22T14:45:33;31.62;23.53
65472;DHT22;52068;50.710;14.492;2023-12-22T14:47:58;31.28;23.82
65472;DHT22;52068;50.710;14.492;2023-12-22T14:50:24;30.80;24.51
65472;DHT22;52068;50.710;14.492;2023-12-22T14:52:49;30.32;24.62
65472;DHT22;52068;50.710;14.492;2023-12-22T14:55:15;29.89;24.88
65472;DHT22;52068;50.710;14.492;2023-12-22T14:57:41;29.44;25.52
65472;DHT22;52068;50.710;14.492;2023-12-22T15:00:07;28.94;26.39
65472;DHT22;52068;50.710;14.492;2023-12-22T15:02:34;28.45;26.66
65472;DHT22;52068;50.710;14.492;2023-12-22T15:05:00;28.04;27.23
65472;DHT22;52068;50.710;14.492;2023-12-22T15:07:25;27.66;27.69
65472;DHT22;52068;50.710;14.492;2023-12-22T15:09:50;27.27;28.19
65472;DHT22;52068;50.710;14.492;2023-12-22T15:12:16;27.02;28.39
65472;DHT22;52068;50.710;14.492;2023-12-22T15:14:45;26.92;28.75
65472;DHT22;52068;50.710;14.492;2023-12-22T15:17:11;27.06;28.65
65472;DHT22;52068;50.710;14.492;2023-12-22T15:19:40;27.36;28.27
65472;DHT22;52068;50.710;14.492;2023-12-22T15:22:07;27.80;27.74
65472;DHT22;52068;50.710;14.492;2023-12-22T15:24:34;28.22;27.03
65472;DHT22;52068;50.710;14.492;2023-12-22T15:27:01;28.67;26.51
65472;DHT22;52068;50.710;14.492;2023-12-22T15:29:26;29.10;25.84
65472;DHT22;52068;50.710;14.492;2023-12-22T15:31:52;29.54;25.32
65472;DHT22;52068;50.710;14.492;2023-12-22T15:34:24;29.89;24.71
65472;DHT22;52068;50.710;14.492;2023-12-22T15:36:50;30.20;24.29
65472;DHT22;52068;50.710;14.492;2023-12-22T15:39:15;30.43;23.98
65472;DHT22;52068;50.710;14.492;2023-12-22T15:41:40;30.57;23.99
65472;DHT22;52068;50.710;14.492;2023-12-22T15:44:06;30.59;23.91
65472;DHT22;52068;50.710;14.492;2023-12-22T15:46:31;30.59;24.13
65472;DHT22;52068;50.710;14.492;2023-12-22T15:48:57;30.46;23.97
65472;DHT22;52068;50.710;14.492;2023-12-22T15:51:23;30.26;24.41
65472;DHT22;52068;50.710;14.492;2023-12-22T15:53:48;30.05;24.69
65472;DHT22;52068;50.710;14.492;2023-12-22T15:56:14;29.69;25.21
65472;DHT22;52068;50.710;14.492;2023-12-22T15:58:41;29.39;25.67
65472;DHT22;52068;50.710;14.492;2023-12-22T16:01:07;28.99;25.93
65472;DHT22;52068;50.710;14.492;2023-12-22T16:03:32;28.57;27.11
65472;DHT22;52068;50.710;14.492;2023-12-22T16:06:02;28.08;28.13
65472;DHT22;52068;50.710;14.492;2023-12-22T16:08:27;27.67;28.96
65472;DHT22;52068;50.710;14.492;2023-12-22T16:10:53;27.33;29.47
65472;DHT22;52068;50.710;14.492;2023-12-22T16:13:18;27.05;30.17
65472;DHT22;52068;50.710;14.492;2023-12-22T16:15:44;26.78;30.71
65472;DHT22;52068;50.710;14.492;2023-12-22T16:18:09;26.52;31.32
65472;DHT22;52068;50.710;14.492;2023-12-22T16:20:35;26.25;31.73
65472;DHT22;52068;50.710;14.492;2023-12-22T16:23:02;26.01;32.26
65472;DHT22;52068;50.710;14.492;2023-12-22T16:25:27;25.87;32.60
65472;DHT22;52068;50.710;14.492;2023-12-22T16:27:53;25.80;32.58
65472;DHT22;52068;50.710;14.492;2023-12-22T16:30:18;25.86;32.61
65472;DHT22;52068;50.710;14.492;2023-12-22T16:32:44;25.89;32.68
65472;DHT22;52068;50.710;14.492;2023-12-22T16:35:09;26.00;32.53
65472;DHT22;52068;50.710;14.492;2023-12-22T16:37:34;26.20;32.41
65472;DHT22;52068;50.710;14.492;2023-12-22T16:40:00;26.41;32.03
65472;DHT22;52068;50.710;14.492;2023-12-22T16:42:25;26.56;32.02
65472;DHT22;52068;50.710;14.492;2023-12-22T16:44:52;26.81;31.46
65472;DHT22;52068;50.710;14.492;2023-12-22T16:47:17;27.07;31.36
65472;DHT22;52068;50.710;14.492;2023-12-22T16:49:42;27.29;31.09
65472;DHT22;52068;50.710;14.492;2023-12-22T16:52:08;27.54;30.71
65472;DHT22;52068;50.710;14.492;2023-12-22T16:54:34;27.76;30.45
65472;DHT22;52068;50.710;14.492;2023-12-22T16:57:00;27.97;29.99
65472;DHT22;52068;50.710;14.492;2023-12-22T16:59:26;28.08;29.69
65472;DHT22;52068;50.710;14.492;2023-12-22T17:01:51;28.09;29.93
65472;DHT22;52068;50.710;14.492;2023-12-22T17:04:17;28.12;29.94
65472;DHT22;52068;50.710;14.492;2023-12-22T17:06:50;28.00;30.04